Flight Track Log - Related Links

Times and Time Zones

All times are in EST time to prevent confusion due to time zone crossing. See the UCA596 flight status page for this flight to view local times or setup timezone preferences in your user account.

Time Position Orientation Groundspeed Altitude Reporting Facility
EST Latitude Longitude Course Direction KTS MPH feet Rate Location/Type
Mon 01:22:06 PM 38.9833 -77.4833 North 148 170 2,800  Level Potomac TRACON
Mon 01:23:06 PM 39.0167 -77.4833 360° North 168 193 4,500 1,753 Climbing Potomac TRACON
Mon 01:24:40 PM 39.0817 -77.5008 348° North 160 184 7,300 1,831 Climbing Washington Center
Mon 01:25:40 PM 39.1297 -77.4967 North 160 184 9,200 1,686 Climbing Washington Center
Mon 01:26:41 PM 39.1761 -77.4686 25° Northeast 160 184 10,700 1,412 Climbing Washington Center
Mon 01:27:00 PM 39.3967 -77.4500 North  Level FlightAware Approximate
Mon 01:27:39 PM 39.2328 -77.4350 25° Northeast 180 207 12,000  Level Washington Center
Mon 01:28:39 PM 39.2894 -77.4125 17° North 200 230 13,300 1,000 Climbing Washington Center
Mon 01:29:39 PM 39.3433 -77.4217 353° North 200 230 14,000 836 Climbing Washington Center
Mon 01:30:41 PM 39.4039 -77.4286 355° North 200 230 15,000 1,130 Climbing Washington Center
Mon 01:33:06 PM 39.5367 -77.4447 355° North 195 224 17,900 1,083 Climbing New York Center
Mon 01:34:06 PM 39.5889 -77.4469 358° North 190 219 18,700 300 Climbing New York Center
Mon 01:35:06 PM 39.6469 -77.4525 356° North 196 226 18,500 -150 Descending New York Center
Mon 01:36:06 PM 39.7033 -77.4525 360° North 216 249 18,400 -50 Descending New York Center
Mon 01:37:06 PM 39.7722 -77.4508 North 221 254 18,400 -700 Level New York Center
Mon 01:38:06 PM 39.8264 -77.4506 360° North 216 249 17,000 -1,600 Descending New York Center
Mon 01:39:06 PM 39.8961 -77.4356 North 221 254 15,200 -1,000 Descending New York Center
Mon 01:40:06 PM 39.9583 -77.4008 23° Northeast 244 281 15,000 -850 Descending New York Center
Mon 01:41:06 PM 40.0339 -77.3567 24° Northeast 266 306 13,500 -1,150 Descending New York Center
Mon 01:42:06 PM 40.0961 -77.3244 22° Northeast 266 306 12,700 -850 Descending New York Center
Mon 01:43:06 PM 40.1717 -77.2800 24° Northeast 260 299 11,800 -900 Descending New York Center
Mon 01:44:06 PM 40.2339 -77.2450 23° Northeast 260 299 10,900 -850 Descending New York Center
Mon 01:45:06 PM 40.3092 -77.2058 22° Northeast 260 299 10,100 -400 Descending New York Center
Mon 01:46:06 PM 40.3672 -77.1731 23° Northeast 260 299 10,100 -50 Level New York Center
Mon 01:47:06 PM 40.4403 -77.1306 24° Northeast 260 299 10,000 -50 Descending New York Center
Mon 01:48:06 PM 40.5006 -77.0981 22° Northeast 260 299 10,000 50 Level New York Center
Mon 01:49:06 PM 40.5714 -77.0553 25° Northeast 260 299 10,100 50 Climbing New York Center
Mon 01:50:06 PM 40.6336 -77.0228 22° Northeast 260 299 10,100 -50 Level New York Center
Mon 01:51:06 PM 40.7025 -76.9825 24° Northeast 255 293 10,000 -100 Descending New York Center
Mon 01:52:06 PM 40.7647 -76.9497 22° Northeast 255 293 9,900  Descending New York Center
Mon 01:53:06 PM 40.8356 -76.9067 25° Northeast 255 293 10,000 50 Climbing New York Center
Mon 01:54:06 PM 40.8914 -76.8761 22° Northeast 260 299 10,000  Level New York Center
Mon 01:55:06 PM 40.9644 -76.8331 24° Northeast 260 299 10,000  Level New York Center
Mon 01:56:06 PM 41.0289 -76.7950 24° Northeast 260 299 10,000 -50 Level New York Center
Mon 01:57:06 PM 41.0911 -76.7592 23° Northeast 255 293 9,900 -50 Descending New York Center
Mon 01:58:06 PM 41.1556 -76.7233 23° Northeast 255 293 9,900 50 Level New York Center
Mon 01:59:06 PM 41.2175 -76.6903 22° Northeast 249 287 10,000 50 Climbing New York Center
Mon 02:00:06 PM 41.2736 -76.6536 26° Northeast 249 287 10,000 -50 Level New York Center
Mon 02:01:06 PM 41.3422 -76.6128 24° Northeast 249 287 9,900  Descending New York Center
Mon 02:02:06 PM 41.4022 -76.5792 23° Northeast 243 280 10,000  Climbing New York Center
Mon 02:03:06 PM 41.4667 -76.5406 24° Northeast 243 280 9,900 -50 Descending New York Center
Mon 02:04:06 PM 41.5244 -76.5094 22° Northeast 243 280 9,900  Level New York Center
Mon 02:05:06 PM 41.5864 -76.4731 24° Northeast 243 280 9,900 -300 Level New York Center
Mon 02:06:06 PM 41.6592 -76.4322 23° Northeast 243 280 9,300 -550 Descending New York Center
Mon 02:07:06 PM 41.7214 -76.3958 24° Northeast 243 280 8,800 -900 Descending New York Center
Mon 02:08:06 PM 41.7817 -76.3564 26° Northeast 243 280 7,500 -1,250 Descending New York Center
Mon 02:09:06 PM 41.8358 -76.3108 32° Northeast 238 274 6,300 -1,200 Descending New York Center
Mon 02:10:06 PM 41.8889 -76.2428 44° Northeast 243 280 5,100 -1,050 Descending New York Center
Mon 02:11:06 PM 41.9333 -76.1794 47° Northeast 237 273 4,200 -600 Descending New York Center
Mon 02:12:06 PM 41.9519 -76.0917 74° East 237 273 3,900 -100 Descending New York Center
Mon 02:13:06 PM 41.9678 -76.0178 74° East 237 273 4,000 50 Climbing New York Center
Mon 02:14:06 PM 41.9856 -75.9467 71° East 226 260 4,000  Level New York Center
Mon 02:15:06 PM 42.0017 -75.8586 76° East 215 247 4,000  Level New York Center
Mon 02:16:06 PM 42.0419 -75.8450 14° North 167 192 4,000  Level New York Center
Mon 02:17:06 PM 42.0783 -75.8700 333° Northwest 120 138 4,000 -150 Level New York Center
Mon 02:18:06 PM 42.1142 -75.9036 325° Northwest 139 160 3,700 -550 Descending New York Center
Mon 02:19:06 PM 42.1464 -75.9314 327° Northwest 144 166 2,900 -650 Descending New York Center
Mon 02:20:06 PM 42.1706 -75.9500 330° Northwest 123 142 2,400 -500 Descending New York Center
Mon 02:22:00 PM 42.2084 -75.9796 56° Northeast  Level Estimated
Mon 02:29:00 PM 42.2084 -75.9796 North  Level Estimated
Mon 02:30:00 PM 42.2084 -75.9796 North  Level Estimated
Mon 02:31:00 PM 42.2084 -75.9796 North  Level Estimated
Mon 02:32:00 PM 42.2084 -75.9796 North  Level Estimated

Login

Don't have an account? Register now (free) for customized features, flight alerts, and more!